KCYS/CYS METAR and TAF weather

Enter ICAO airport designator
Station Type Date Time Source
KCYS METAR 2023/01/29 18:09 UTC NOAA

KCYS 291809Z 10006KT 1SM -SN VV015 M18/M22 A2995 RMK AO2 P0001 T11831222 RVRNO


Station Type Date Time Source
KCYS Decoded METAR 2023/01/29 18:09 UTC NOAA

CHEYENNE AIRPORT, WY, United States (KCYS) 41-09N 104-48W 1865M
Jan 29, 2023 - 01:09 PM EST / 2023.01.29 1809 UTC
Wind: from the E (100 degrees) at 7 MPH (6 KT):0
Visibility: 1 mile(s):0
Sky conditions: obscured
Weather: light snow
Precipitation last hour: 0.01 inches
Temperature: -0.9 F (-18.3 C)
Windchill: -14 F (-26 C):2
Dew Point: -8.0 F (-22.2 C)
Relative Humidity: 71%
Pressure (altimeter): 29.95 in. Hg (1014 hPa)
ob: KCYS 291809Z 10006KT 1SM -SN VV015 M18/M22 A2995 RMK AO2 P0001 T11831222 RVRNO
cycle: 18

Station Type Date Time Source
KCYS TAF 2023/01/29 18:22 UTC NOAA

TAF KCYS 291720Z 2918/3018 14009KT 1SM -SN BR OVC012
FM292000 09009KT 1/2SM SN FG OVC014
FM300000 05009KT 1SM -SN BR OVC020
FM300300 05009KT 1 1/2SM -SN BR OVC017
FM301600 18008KT 3SM -SN OVC009

Example: see airport list